sensor_id;sensor_type;location;lat;lon;timestamp;P1;durP1;ratioP1;P2;durP2;ratioP2
73428;SDS011;61643;49.564;17.412;2023-02-22T00:00:28;12.80;;;5.70;;
73428;SDS011;61643;49.564;17.412;2023-02-22T00:03:11;15.73;;;6.60;;
73428;SDS011;61643;49.564;17.412;2023-02-22T00:05:50;8.93;;;4.13;;
73428;SDS011;61643;49.564;17.412;2023-02-22T00:08:18;6.15;;;3.55;;
73428;SDS011;61643;49.564;17.412;2023-02-22T00:10:46;6.55;;;3.70;;
73428;SDS011;61643;49.564;17.412;2023-02-22T00:13:16;8.98;;;5.00;;
73428;SDS011;61643;49.564;17.412;2023-02-22T00:15:43;3.00;;;2.00;;
73428;SDS011;61643;49.564;17.412;2023-02-22T00:18:14;2.45;;;1.95;;
73428;SDS011;61643;49.564;17.412;2023-02-22T00:20:40;3.50;;;1.90;;
73428;SDS011;61643;49.564;17.412;2023-02-22T00:23:08;2.55;;;1.30;;
73428;SDS011;61643;49.564;17.412;2023-02-22T00:25:39;3.05;;;2.00;;
73428;SDS011;61643;49.564;17.412;2023-02-22T00:28:06;3.22;;;1.55;;
73428;SDS011;61643;49.564;17.412;2023-02-22T00:30:32;2.67;;;1.80;;
73428;SDS011;61643;49.564;17.412;2023-02-22T00:33:00;2.80;;;1.42;;
73428;SDS011;61643;49.564;17.412;2023-02-22T00:35:28;3.92;;;1.52;;
73428;SDS011;61643;49.564;17.412;2023-02-22T00:37:56;2.92;;;1.60;;
73428;SDS011;61643;49.564;17.412;2023-02-22T00:40:25;5.32;;;1.92;;
73428;SDS011;61643;49.564;17.412;2023-02-22T00:42:52;2.65;;;1.33;;
73428;SDS011;61643;49.564;17.412;2023-02-22T00:45:20;3.30;;;1.80;;
73428;SDS011;61643;49.564;17.412;2023-02-22T00:47:47;4.25;;;1.77;;
73428;SDS011;61643;49.564;17.412;2023-02-22T00:50:14;8.38;;;2.08;;
73428;SDS011;61643;49.564;17.412;2023-02-22T00:52:41;2.72;;;1.55;;
73428;SDS011;61643;49.564;17.412;2023-02-22T00:55:08;3.58;;;2.00;;
73428;SDS011;61643;49.564;17.412;2023-02-22T00:57:35;3.63;;;2.08;;
73428;SDS011;61643;49.564;17.412;2023-02-22T01:00:03;3.45;;;2.50;;
73428;SDS011;61643;49.564;17.412;2023-02-22T01:02:40;3.30;;;2.28;;
73428;SDS011;61643;49.564;17.412;2023-02-22T01:05:07;3.63;;;1.85;;
73428;SDS011;61643;49.564;17.412;2023-02-22T01:07:37;3.80;;;1.80;;
73428;SDS011;61643;49.564;17.412;2023-02-22T01:10:05;3.03;;;2.00;;
73428;SDS011;61643;49.564;17.412;2023-02-22T01:12:35;5.15;;;2.45;;
73428;SDS011;61643;49.564;17.412;2023-02-22T01:15:03;3.35;;;1.73;;
73428;SDS011;61643;49.564;17.412;2023-02-22T01:17:30;3.35;;;1.80;;
73428;SDS011;61643;49.564;17.412;2023-02-22T01:19:55;2.85;;;1.80;;
73428;SDS011;61643;49.564;17.412;2023-02-22T01:22:22;2.22;;;1.73;;
73428;SDS011;61643;49.564;17.412;2023-02-22T01:24:48;3.80;;;1.90;;
73428;SDS011;61643;49.564;17.412;2023-02-22T01:27:15;3.15;;;1.73;;
73428;SDS011;61643;49.564;17.412;2023-02-22T01:29:43;2.67;;;2.08;;
73428;SDS011;61643;49.564;17.412;2023-02-22T01:32:09;4.43;;;2.10;;
73428;SDS011;61643;49.564;17.412;2023-02-22T01:34:36;3.35;;;1.77;;
73428;SDS011;61643;49.564;17.412;2023-02-22T01:37:03;2.63;;;2.00;;
73428;SDS011;61643;49.564;17.412;2023-02-22T01:39:31;3.05;;;2.08;;
73428;SDS011;61643;49.564;17.412;2023-02-22T01:41:57;4.10;;;1.88;;
73428;SDS011;61643;49.564;17.412;2023-02-22T01:44:28;2.60;;;1.90;;
73428;SDS011;61643;49.564;17.412;2023-02-22T01:46:57;3.50;;;1.95;;
73428;SDS011;61643;49.564;17.412;2023-02-22T01:49:25;3.75;;;2.05;;
73428;SDS011;61643;49.564;17.412;2023-02-22T01:51:56;4.35;;;2.33;;
73428;SDS011;61643;49.564;17.412;2023-02-22T01:54:29;3.58;;;2.22;;
73428;SDS011;61643;49.564;17.412;2023-02-22T01:57:13;5.05;;;2.20;;
73428;SDS011;61643;49.564;17.412;2023-02-22T01:59:47;8.02;;;2.55;;
73428;SDS011;61643;49.564;17.412;2023-02-22T02:02:15;4.63;;;2.50;;
73428;SDS011;61643;49.564;17.412;2023-02-22T02:04:43;4.53;;;2.40;;
73428;SDS011;61643;49.564;17.412;2023-02-22T02:07:11;2.22;;;1.98;;
73428;SDS011;61643;49.564;17.412;2023-02-22T02:12:25;4.72;;;2.53;;
73428;SDS011;61643;49.564;17.412;2023-02-22T02:15:15;4.57;;;2.50;;
73428;SDS011;61643;49.564;17.412;2023-02-22T02:17:46;4.00;;;2.42;;
73428;SDS011;61643;49.564;17.412;2023-02-22T02:33:42;4.20;;;2.00;;
73428;SDS011;61643;49.564;17.412;2023-02-22T02:41:26;3.67;;;1.92;;
73428;SDS011;61643;49.564;17.412;2023-02-22T02:43:58;6.53;;;2.05;;
73428;SDS011;61643;49.564;17.412;2023-02-22T02:46:44;4.10;;;1.70;;
73428;SDS011;61643;49.564;17.412;2023-02-22T02:49:35;5.78;;;2.38;;
73428;SDS011;61643;49.564;17.412;2023-02-22T02:52:11;4.07;;;2.00;;
73428;SDS011;61643;49.564;17.412;2023-02-22T02:54:37;3.45;;;2.13;;
73428;SDS011;61643;49.564;17.412;2023-02-22T02:57:05;4.53;;;2.00;;
73428;SDS011;61643;49.564;17.412;2023-02-22T02:59:35;4.07;;;2.30;;
73428;SDS011;61643;49.564;17.412;2023-02-22T03:02:21;3.00;;;2.20;;
73428;SDS011;61643;49.564;17.412;2023-02-22T03:07:47;3.33;;;1.90;;
73428;SDS011;61643;49.564;17.412;2023-02-22T03:15:51;3.70;;;2.30;;
73428;SDS011;61643;49.564;17.412;2023-02-22T03:18:41;4.47;;;2.13;;
73428;SDS011;61643;49.564;17.412;2023-02-22T03:21:33;5.07;;;2.08;;
73428;SDS011;61643;49.564;17.412;2023-02-22T03:26:48;3.83;;;2.00;;
73428;SDS011;61643;49.564;17.412;2023-02-22T03:29:20;4.93;;;2.30;;
73428;SDS011;61643;49.564;17.412;2023-02-22T03:31:50;3.65;;;2.30;;
73428;SDS011;61643;49.564;17.412;2023-02-22T03:34:23;4.07;;;2.25;;
73428;SDS011;61643;49.564;17.412;2023-02-22T03:36:54;4.68;;;2.38;;
73428;SDS011;61643;49.564;17.412;2023-02-22T03:39:23;4.82;;;2.38;;
73428;SDS011;61643;49.564;17.412;2023-02-22T03:42:29;4.30;;;2.35;;
73428;SDS011;61643;49.564;17.412;2023-02-22T03:44:59;4.10;;;2.55;;
73428;SDS011;61643;49.564;17.412;2023-02-22T03:47:31;5.15;;;2.53;;
73428;SDS011;61643;49.564;17.412;2023-02-22T03:50:06;3.83;;;2.42;;
73428;SDS011;61643;49.564;17.412;2023-02-22T03:52:36;4.75;;;2.58;;
73428;SDS011;61643;49.564;17.412;2023-02-22T03:55:02;6.57;;;2.92;;
73428;SDS011;61643;49.564;17.412;2023-02-22T03:57:36;5.00;;;2.40;;
73428;SDS011;61643;49.564;17.412;2023-02-22T04:00:07;3.75;;;2.30;;
73428;SDS011;61643;49.564;17.412;2023-02-22T04:02:36;3.28;;;2.25;;
73428;SDS011;61643;49.564;17.412;2023-02-22T04:05:02;4.07;;;2.55;;
73428;SDS011;61643;49.564;17.412;2023-02-22T04:07:28;4.57;;;2.13;;
73428;SDS011;61643;49.564;17.412;2023-02-22T04:09:54;4.88;;;2.55;;
73428;SDS011;61643;49.564;17.412;2023-02-22T04:12:20;5.03;;;2.67;;
73428;SDS011;61643;49.564;17.412;2023-02-22T04:14:46;8.07;;;2.88;;
73428;SDS011;61643;49.564;17.412;2023-02-22T04:17:12;7.50;;;2.53;;
73428;SDS011;61643;49.564;17.412;2023-02-22T04:19:38;7.82;;;2.50;;
73428;SDS011;61643;49.564;17.412;2023-02-22T04:22:04;5.65;;;2.90;;
73428;SDS011;61643;49.564;17.412;2023-02-22T04:24:31;5.95;;;2.70;;
73428;SDS011;61643;49.564;17.412;2023-02-22T04:26:57;8.50;;;3.50;;
73428;SDS011;61643;49.564;17.412;2023-02-22T04:29:23;10.38;;;4.35;;
73428;SDS011;61643;49.564;17.412;2023-02-22T04:31:49;7.93;;;3.63;;
73428;SDS011;61643;49.564;17.412;2023-02-22T04:34:15;6.03;;;3.00;;
73428;SDS011;61643;49.564;17.412;2023-02-22T04:36:41;9.40;;;3.10;;
73428;SDS011;61643;49.564;17.412;2023-02-22T04:39:09;7.13;;;2.83;;
73428;SDS011;61643;49.564;17.412;2023-02-22T04:41:35;5.95;;;3.00;;
73428;SDS011;61643;49.564;17.412;2023-02-22T04:44:01;6.50;;;2.55;;
73428;SDS011;61643;49.564;17.412;2023-02-22T04:46:27;6.28;;;2.22;;
73428;SDS011;61643;49.564;17.412;2023-02-22T04:48:53;7.65;;;2.28;;
73428;SDS011;61643;49.564;17.412;2023-02-22T04:51:19;5.55;;;2.38;;
73428;SDS011;61643;49.564;17.412;2023-02-22T04:53:45;5.70;;;1.80;;
73428;SDS011;61643;49.564;17.412;2023-02-22T04:56:11;7.57;;;2.22;;
73428;SDS011;61643;49.564;17.412;2023-02-22T04:58:37;7.88;;;2.38;;
73428;SDS011;61643;49.564;17.412;2023-02-22T05:01:03;5.35;;;2.20;;
73428;SDS011;61643;49.564;17.412;2023-02-22T05:03:29;11.55;;;3.03;;
73428;SDS011;61643;49.564;17.412;2023-02-22T05:05:55;11.55;;;3.15;;
73428;SDS011;61643;49.564;17.412;2023-02-22T05:08:21;10.45;;;3.75;;
73428;SDS011;61643;49.564;17.412;2023-02-22T05:10:47;9.07;;;3.58;;
73428;SDS011;61643;49.564;17.412;2023-02-22T05:13:13;14.77;;;3.55;;
73428;SDS011;61643;49.564;17.412;2023-02-22T05:15:39;16.10;;;3.92;;
73428;SDS011;61643;49.564;17.412;2023-02-22T05:18:05;8.20;;;3.15;;
73428;SDS011;61643;49.564;17.412;2023-02-22T05:20:32;11.43;;;3.25;;
73428;SDS011;61643;49.564;17.412;2023-02-22T05:23:02;11.18;;;3.78;;
73428;SDS011;61643;49.564;17.412;2023-02-22T05:25:28;10.68;;;3.38;;
73428;SDS011;61643;49.564;17.412;2023-02-22T05:27:55;11.15;;;3.42;;
73428;SDS011;61643;49.564;17.412;2023-02-22T05:32:50;5.18;;;2.92;;
73428;SDS011;61643;49.564;17.412;2023-02-22T05:35:18;8.88;;;2.58;;
73428;SDS011;61643;49.564;17.412;2023-02-22T05:37:45;10.48;;;3.10;;
73428;SDS011;61643;49.564;17.412;2023-02-22T05:40:12;5.57;;;2.40;;
73428;SDS011;61643;49.564;17.412;2023-02-22T05:42:41;11.40;;;2.75;;
73428;SDS011;61643;49.564;17.412;2023-02-22T05:45:07;10.68;;;3.40;;
73428;SDS011;61643;49.564;17.412;2023-02-22T05:47:33;9.93;;;2.90;;
73428;SDS011;61643;49.564;17.412;2023-02-22T05:49:59;10.15;;;2.97;;
73428;SDS011;61643;49.564;17.412;2023-02-22T05:52:26;10.93;;;3.20;;
73428;SDS011;61643;49.564;17.412;2023-02-22T05:54:52;10.57;;;3.63;;
73428;SDS011;61643;49.564;17.412;2023-02-22T05:57:18;13.15;;;3.55;;
73428;SDS011;61643;49.564;17.412;2023-02-22T05:59:44;9.80;;;3.10;;
73428;SDS011;61643;49.564;17.412;2023-02-22T06:02:10;12.93;;;3.13;;
73428;SDS011;61643;49.564;17.412;2023-02-22T06:04:36;10.32;;;2.90;;
73428;SDS011;61643;49.564;17.412;2023-02-22T06:07:01;8.95;;;2.90;;
73428;SDS011;61643;49.564;17.412;2023-02-22T06:09:28;11.52;;;3.25;;
73428;SDS011;61643;49.564;17.412;2023-02-22T06:11:53;9.45;;;3.17;;
73428;SDS011;61643;49.564;17.412;2023-02-22T06:14:19;13.20;;;2.88;;
73428;SDS011;61643;49.564;17.412;2023-02-22T06:16:51;9.30;;;3.55;;
73428;SDS011;61643;49.564;17.412;2023-02-22T06:19:17;10.48;;;3.70;;
73428;SDS011;61643;49.564;17.412;2023-02-22T06:21:53;9.50;;;3.40;;
73428;SDS011;61643;49.564;17.412;2023-02-22T06:24:21;17.25;;;4.00;;
73428;SDS011;61643;49.564;17.412;2023-02-22T06:26:58;17.27;;;4.22;;
73428;SDS011;61643;49.564;17.412;2023-02-22T06:29:26;11.30;;;3.70;;
73428;SDS011;61643;49.564;17.412;2023-02-22T06:31:53;11.13;;;3.50;;
73428;SDS011;61643;49.564;17.412;2023-02-22T06:34:20;10.88;;;3.47;;
73428;SDS011;61643;49.564;17.412;2023-02-22T06:36:47;9.32;;;3.17;;
73428;SDS011;61643;49.564;17.412;2023-02-22T06:39:14;10.00;;;3.13;;
73428;SDS011;61643;49.564;17.412;2023-02-22T06:41:41;10.85;;;3.20;;
73428;SDS011;61643;49.564;17.412;2023-02-22T06:44:08;13.98;;;3.30;;
73428;SDS011;61643;49.564;17.412;2023-02-22T06:46:35;10.10;;;3.50;;
73428;SDS011;61643;49.564;17.412;2023-02-22T06:49:02;11.45;;;4.60;;
73428;SDS011;61643;49.564;17.412;2023-02-22T06:51:28;8.20;;;3.42;;
73428;SDS011;61643;49.564;17.412;2023-02-22T06:53:55;10.80;;;2.70;;
73428;SDS011;61643;49.564;17.412;2023-02-22T06:56:21;7.40;;;3.00;;
73428;SDS011;61643;49.564;17.412;2023-02-22T06:58:47;7.40;;;2.78;;
73428;SDS011;61643;49.564;17.412;2023-02-22T07:01:16;11.88;;;3.38;;
73428;SDS011;61643;49.564;17.412;2023-02-22T07:03:42;10.90;;;3.28;;
73428;SDS011;61643;49.564;17.412;2023-02-22T07:06:08;11.70;;;3.30;;
73428;SDS011;61643;49.564;17.412;2023-02-22T07:08:35;10.52;;;3.10;;
73428;SDS011;61643;49.564;17.412;2023-02-22T07:11:02;8.70;;;3.67;;
73428;SDS011;61643;49.564;17.412;2023-02-22T07:13:28;12.40;;;4.40;;
73428;SDS011;61643;49.564;17.412;2023-02-22T07:15:54;15.73;;;3.95;;
73428;SDS011;61643;49.564;17.412;2023-02-22T07:18:20;10.63;;;3.17;;
73428;SDS011;61643;49.564;17.412;2023-02-22T07:20:46;13.23;;;3.80;;
73428;SDS011;61643;49.564;17.412;2023-02-22T07:23:15;14.98;;;4.35;;
73428;SDS011;61643;49.564;17.412;2023-02-22T07:25:42;13.90;;;3.55;;
73428;SDS011;61643;49.564;17.412;2023-02-22T07:28:08;8.30;;;3.60;;
73428;SDS011;61643;49.564;17.412;2023-02-22T07:30:38;9.38;;;4.45;;
73428;SDS011;61643;49.564;17.412;2023-02-22T07:33:05;10.50;;;4.53;;
73428;SDS011;61643;49.564;17.412;2023-02-22T07:35:35;12.40;;;4.05;;
73428;SDS011;61643;49.564;17.412;2023-02-22T07:38:06;9.05;;;3.97;;
73428;SDS011;61643;49.564;17.412;2023-02-22T07:40:33;11.77;;;4.05;;
73428;SDS011;61643;49.564;17.412;2023-02-22T07:43:02;11.77;;;3.47;;
73428;SDS011;61643;49.564;17.412;2023-02-22T07:45:31;10.48;;;4.38;;
73428;SDS011;61643;49.564;17.412;2023-02-22T07:47:58;7.55;;;3.70;;
73428;SDS011;61643;49.564;17.412;2023-02-22T07:50:27;17.85;;;4.20;;
73428;SDS011;61643;49.564;17.412;2023-02-22T07:52:55;11.75;;;4.60;;
73428;SDS011;61643;49.564;17.412;2023-02-22T07:55:24;18.27;;;5.20;;
73428;SDS011;61643;49.564;17.412;2023-02-22T07:57:53;16.58;;;4.32;;
73428;SDS011;61643;49.564;17.412;2023-02-22T08:00:25;12.27;;;5.25;;
73428;SDS011;61643;49.564;17.412;2023-02-22T08:02:52;15.10;;;5.43;;
73428;SDS011;61643;49.564;17.412;2023-02-22T08:05:18;15.55;;;5.97;;
73428;SDS011;61643;49.564;17.412;2023-02-22T08:07:46;14.50;;;4.95;;
73428;SDS011;61643;49.564;17.412;2023-02-22T08:10:12;10.32;;;4.30;;
73428;SDS011;61643;49.564;17.412;2023-02-22T08:12:39;13.88;;;4.43;;
73428;SDS011;61643;49.564;17.412;2023-02-22T08:15:06;10.10;;;4.35;;
73428;SDS011;61643;49.564;17.412;2023-02-22T08:17:33;13.68;;;4.47;;
73428;SDS011;61643;49.564;17.412;2023-02-22T08:19:59;18.92;;;7.13;;
73428;SDS011;61643;49.564;17.412;2023-02-22T08:22:26;13.20;;;4.50;;
73428;SDS011;61643;49.564;17.412;2023-02-22T08:24:53;13.13;;;3.78;;
73428;SDS011;61643;49.564;17.412;2023-02-22T08:27:23;14.95;;;5.22;;
73428;SDS011;61643;49.564;17.412;2023-02-22T08:29:50;16.98;;;6.57;;
73428;SDS011;61643;49.564;17.412;2023-02-22T08:32:16;10.10;;;3.90;;
73428;SDS011;61643;49.564;17.412;2023-02-22T08:34:42;13.20;;;3.40;;
73428;SDS011;61643;49.564;17.412;2023-02-22T08:37:08;12.85;;;4.20;;
73428;SDS011;61643;49.564;17.412;2023-02-22T08:39:34;11.43;;;3.30;;
73428;SDS011;61643;49.564;17.412;2023-02-22T08:42:00;13.30;;;3.92;;
73428;SDS011;61643;49.564;17.412;2023-02-22T08:44:26;7.20;;;2.05;;
73428;SDS011;61643;49.564;17.412;2023-02-22T08:46:52;9.02;;;3.13;;
73428;SDS011;61643;49.564;17.412;2023-02-22T08:49:18;10.43;;;3.38;;
73428;SDS011;61643;49.564;17.412;2023-02-22T08:51:45;7.97;;;2.50;;
73428;SDS011;61643;49.564;17.412;2023-02-22T08:54:11;12.48;;;3.03;;
73428;SDS011;61643;49.564;17.412;2023-02-22T08:56:38;8.40;;;2.33;;
73428;SDS011;61643;49.564;17.412;2023-02-22T08:59:04;11.10;;;2.50;;
73428;SDS011;61643;49.564;17.412;2023-02-22T09:01:30;7.53;;;2.30;;
73428;SDS011;61643;49.564;17.412;2023-02-22T09:03:57;8.52;;;2.72;;
73428;SDS011;61643;49.564;17.412;2023-02-22T09:06:23;7.72;;;2.20;;
73428;SDS011;61643;49.564;17.412;2023-02-22T09:08:49;9.38;;;2.28;;
73428;SDS011;61643;49.564;17.412;2023-02-22T09:11:15;10.88;;;2.05;;
73428;SDS011;61643;49.564;17.412;2023-02-22T09:13:41;10.25;;;2.22;;
73428;SDS011;61643;49.564;17.412;2023-02-22T09:16:07;6.53;;;1.90;;
73428;SDS011;61643;49.564;17.412;2023-02-22T09:18:33;5.88;;;1.90;;
73428;SDS011;61643;49.564;17.412;2023-02-22T09:20:59;6.13;;;2.08;;
73428;SDS011;61643;49.564;17.412;2023-02-22T09:23:25;4.22;;;1.75;;
73428;SDS011;61643;49.564;17.412;2023-02-22T09:25:51;6.10;;;1.88;;
73428;SDS011;61643;49.564;17.412;2023-02-22T09:28:17;9.00;;;2.35;;
73428;SDS011;61643;49.564;17.412;2023-02-22T09:30:43;8.65;;;2.47;;
73428;SDS011;61643;49.564;17.412;2023-02-22T09:33:11;9.88;;;2.15;;
73428;SDS011;61643;49.564;17.412;2023-02-22T09:35:42;9.75;;;2.33;;
73428;SDS011;61643;49.564;17.412;2023-02-22T09:38:13;9.23;;;1.80;;
73428;SDS011;61643;49.564;17.412;2023-02-22T09:40:48;10.82;;;2.72;;
73428;SDS011;61643;49.564;17.412;2023-02-22T09:49:06;10.02;;;2.38;;
73428;SDS011;61643;49.564;17.412;2023-02-22T09:54:40;5.07;;;1.80;;
73428;SDS011;61643;49.564;17.412;2023-02-22T09:57:16;11.10;;;2.10;;
73428;SDS011;61643;49.564;17.412;2023-02-22T10:02:45;8.07;;;2.55;;
73428;SDS011;61643;49.564;17.412;2023-02-22T10:05:25;10.00;;;2.05;;
73428;SDS011;61643;49.564;17.412;2023-02-22T10:07:59;9.52;;;3.00;;
73428;SDS011;61643;49.564;17.412;2023-02-22T10:10:36;8.25;;;1.88;;
73428;SDS011;61643;49.564;17.412;2023-02-22T10:13:07;10.35;;;2.35;;
73428;SDS011;61643;49.564;17.412;2023-02-22T10:16:05;10.70;;;2.17;;
73428;SDS011;61643;49.564;17.412;2023-02-22T10:22:09;9.00;;;1.67;;
73428;SDS011;61643;49.564;17.412;2023-02-22T10:24:59;3.15;;;1.48;;
73428;SDS011;61643;49.564;17.412;2023-02-22T10:27:31;8.30;;;2.05;;
73428;SDS011;61643;49.564;17.412;2023-02-22T10:30:22;9.98;;;2.47;;
73428;SDS011;61643;49.564;17.412;2023-02-22T10:32:57;10.60;;;1.90;;
73428;SDS011;61643;49.564;17.412;2023-02-22T10:35:32;9.35;;;2.72;;
73428;SDS011;61643;49.564;17.412;2023-02-22T10:38:16;10.10;;;2.30;;
73428;SDS011;61643;49.564;17.412;2023-02-22T10:40:55;9.95;;;2.60;;
73428;SDS011;61643;49.564;17.412;2023-02-22T10:43:22;14.15;;;3.22;;
73428;SDS011;61643;49.564;17.412;2023-02-22T10:45:51;10.63;;;3.00;;
73428;SDS011;61643;49.564;17.412;2023-02-22T10:48:21;16.85;;;4.50;;
73428;SDS011;61643;49.564;17.412;2023-02-22T10:50:51;8.57;;;1.95;;
73428;SDS011;61643;49.564;17.412;2023-02-22T10:58:39;9.68;;;2.28;;
73428;SDS011;61643;49.564;17.412;2023-02-22T11:06:34;10.98;;;2.42;;
73428;SDS011;61643;49.564;17.412;2023-02-22T11:12:06;7.72;;;1.75;;
73428;SDS011;61643;49.564;17.412;2023-02-22T11:14:40;7.88;;;2.10;;
73428;SDS011;61643;49.564;17.412;2023-02-22T11:17:07;10.57;;;1.98;;
73428;SDS011;61643;49.564;17.412;2023-02-22T11:19:33;6.50;;;1.77;;
73428;SDS011;61643;49.564;17.412;2023-02-22T11:24:43;10.88;;;2.03;;
73428;SDS011;61643;49.564;17.412;2023-02-22T11:27:36;10.45;;;2.35;;
73428;SDS011;61643;49.564;17.412;2023-02-22T11:30:19;7.95;;;1.88;;
73428;SDS011;61643;49.564;17.412;2023-02-22T11:32:55;9.48;;;1.80;;
73428;SDS011;61643;49.564;17.412;2023-02-22T11:37:52;6.57;;;1.85;;
73428;SDS011;61643;49.564;17.412;2023-02-22T11:40:33;9.07;;;2.10;;
73428;SDS011;61643;49.564;17.412;2023-02-22T11:43:07;8.98;;;2.80;;
73428;SDS011;61643;49.564;17.412;2023-02-22T11:45:54;7.90;;;1.77;;
73428;SDS011;61643;49.564;17.412;2023-02-22T11:48:31;9.02;;;2.00;;
73428;SDS011;61643;49.564;17.412;2023-02-22T11:53:51;8.35;;;1.75;;
73428;SDS011;61643;49.564;17.412;2023-02-22T11:56:35;7.85;;;1.80;;
73428;SDS011;61643;49.564;17.412;2023-02-22T12:07:47;7.65;;;1.98;;
73428;SDS011;61643;49.564;17.412;2023-02-22T12:16:10;5.43;;;1.98;;
73428;SDS011;61643;49.564;17.412;2023-02-22T12:21:32;9.38;;;2.08;;
73428;SDS011;61643;49.564;17.412;2023-02-22T12:24:06;8.52;;;2.22;;
73428;SDS011;61643;49.564;17.412;2023-02-22T12:26:37;7.72;;;2.10;;
73428;SDS011;61643;49.564;17.412;2023-02-22T12:32:07;9.50;;;2.10;;
73428;SDS011;61643;49.564;17.412;2023-02-22T12:34:47;10.40;;;2.47;;
73428;SDS011;61643;49.564;17.412;2023-02-22T12:40:09;14.00;;;2.97;;
73428;SDS011;61643;49.564;17.412;2023-02-22T12:48:21;7.82;;;2.53;;
73428;SDS011;61643;49.564;17.412;2023-02-22T12:51:03;7.72;;;2.33;;
73428;SDS011;61643;49.564;17.412;2023-02-22T12:53:58;8.40;;;2.55;;
73428;SDS011;61643;49.564;17.412;2023-02-22T12:59:17;9.90;;;3.40;;
73428;SDS011;61643;49.564;17.412;2023-02-22T13:01:54;9.57;;;3.00;;
73428;SDS011;61643;49.564;17.412;2023-02-22T13:04:25;8.02;;;2.03;;
73428;SDS011;61643;49.564;17.412;2023-02-22T13:07:00;9.10;;;2.53;;
73428;SDS011;61643;49.564;17.412;2023-02-22T13:12:54;11.93;;;2.70;;
73428;SDS011;61643;49.564;17.412;2023-02-22T13:15:34;7.50;;;2.10;;
73428;SDS011;61643;49.564;17.412;2023-02-22T13:18:09;5.38;;;1.70;;
73428;SDS011;61643;49.564;17.412;2023-02-22T13:20:50;7.95;;;2.35;;
73428;SDS011;61643;49.564;17.412;2023-02-22T13:23:23;6.72;;;2.00;;
73428;SDS011;61643;49.564;17.412;2023-02-22T13:26:31;9.02;;;2.15;;
73428;SDS011;61643;49.564;17.412;2023-02-22T13:29:09;6.05;;;2.00;;
73428;SDS011;61643;49.564;17.412;2023-02-22T13:34:41;8.07;;;2.17;;
73428;SDS011;61643;49.564;17.412;2023-02-22T13:42:19;11.55;;;3.30;;
73428;SDS011;61643;49.564;17.412;2023-02-22T13:50:32;13.57;;;3.80;;
73428;SDS011;61643;49.564;17.412;2023-02-22T13:53:29;5.32;;;2.20;;
73428;SDS011;61643;49.564;17.412;2023-02-22T13:56:04;10.10;;;2.22;;
73428;SDS011;61643;49.564;17.412;2023-02-22T13:58:30;8.82;;;3.72;;
73428;SDS011;61643;49.564;17.412;2023-02-22T14:00:57;5.18;;;2.22;;
73428;SDS011;61643;49.564;17.412;2023-02-22T14:03:28;12.10;;;2.85;;
73428;SDS011;61643;49.564;17.412;2023-02-22T14:06:54;6.88;;;3.47;;
73428;SDS011;61643;49.564;17.412;2023-02-22T14:13:02;8.10;;;2.08;;
73428;SDS011;61643;49.564;17.412;2023-02-22T14:15:07;7.80;;;2.97;;
73428;SDS011;61643;49.564;17.412;2023-02-22T14:17:45;18.75;;;3.30;;
73428;SDS011;61643;49.564;17.412;2023-02-22T14:22:40;8.30;;;2.55;;
73428;SDS011;61643;49.564;17.412;2023-02-22T14:28:01;9.10;;;3.22;;
73428;SDS011;61643;49.564;17.412;2023-02-22T14:30:30;6.00;;;2.38;;
73428;SDS011;61643;49.564;17.412;2023-02-22T14:32:59;4.88;;;2.08;;
73428;SDS011;61643;49.564;17.412;2023-02-22T14:35:29;10.00;;;3.42;;
73428;SDS011;61643;49.564;17.412;2023-02-22T14:38:02;8.23;;;3.88;;
73428;SDS011;61643;49.564;17.412;2023-02-22T14:40:34;6.43;;;2.83;;
73428;SDS011;61643;49.564;17.412;2023-02-22T14:43:08;5.32;;;2.13;;
73428;SDS011;61643;49.564;17.412;2023-02-22T14:45:50;11.55;;;2.50;;
73428;SDS011;61643;49.564;17.412;2023-02-22T14:48:23;5.88;;;2.08;;
73428;SDS011;61643;49.564;17.412;2023-02-22T14:54:00;7.28;;;2.40;;
73428;SDS011;61643;49.564;17.412;2023-02-22T14:56:50;5.20;;;2.00;;
73428;SDS011;61643;49.564;17.412;2023-02-22T14:59:24;6.35;;;2.25;;
73428;SDS011;61643;49.564;17.412;2023-02-22T15:02:05;6.13;;;2.30;;
73428;SDS011;61643;49.564;17.412;2023-02-22T15:04:35;7.00;;;2.25;;
73428;SDS011;61643;49.564;17.412;2023-02-22T15:07:07;5.57;;;2.53;;
73428;SDS011;61643;49.564;17.412;2023-02-22T15:15:23;7.28;;;2.45;;
73428;SDS011;61643;49.564;17.412;2023-02-22T15:17:55;5.53;;;3.33;;
73428;SDS011;61643;49.564;17.412;2023-02-22T15:20:23;7.60;;;2.58;;
73428;SDS011;61643;49.564;17.412;2023-02-22T15:22:50;22.10;;;6.72;;
73428;SDS011;61643;49.564;17.412;2023-02-22T15:25:26;19.42;;;5.95;;
73428;SDS011;61643;49.564;17.412;2023-02-22T15:27:58;10.65;;;4.10;;
73428;SDS011;61643;49.564;17.412;2023-02-22T15:30:27;14.68;;;4.22;;
73428;SDS011;61643;49.564;17.412;2023-02-22T15:32:54;19.45;;;7.35;;
73428;SDS011;61643;49.564;17.412;2023-02-22T15:35:27;20.45;;;6.78;;
73428;SDS011;61643;49.564;17.412;2023-02-22T15:37:59;12.48;;;4.93;;
73428;SDS011;61643;49.564;17.412;2023-02-22T15:40:30;13.27;;;5.13;;
73428;SDS011;61643;49.564;17.412;2023-02-22T15:42:58;16.45;;;5.80;;
73428;SDS011;61643;49.564;17.412;2023-02-22T15:45:26;14.30;;;5.38;;
73428;SDS011;61643;49.564;17.412;2023-02-22T15:47:53;10.63;;;3.65;;
73428;SDS011;61643;49.564;17.412;2023-02-22T15:50:21;12.98;;;4.20;;
73428;SDS011;61643;49.564;17.412;2023-02-22T15:55:26;10.70;;;5.03;;
73428;SDS011;61643;49.564;17.412;2023-02-22T15:57:53;9.57;;;3.60;;
73428;SDS011;61643;49.564;17.412;2023-02-22T16:00:22;7.18;;;3.28;;
73428;SDS011;61643;49.564;17.412;2023-02-22T16:02:57;9.38;;;2.90;;
73428;SDS011;61643;49.564;17.412;2023-02-22T16:05:29;6.05;;;2.15;;
73428;SDS011;61643;49.564;17.412;2023-02-22T16:08:00;7.90;;;2.75;;
73428;SDS011;61643;49.564;17.412;2023-02-22T16:10:27;6.22;;;2.53;;
73428;SDS011;61643;49.564;17.412;2023-02-22T16:13:05;7.97;;;3.60;;
73428;SDS011;61643;49.564;17.412;2023-02-22T16:15:51;7.82;;;2.70;;
73428;SDS011;61643;49.564;17.412;2023-02-22T16:18:32;12.75;;;4.68;;
73428;SDS011;61643;49.564;17.412;2023-02-22T16:21:02;29.45;;;9.38;;
73428;SDS011;61643;49.564;17.412;2023-02-22T16:23:30;21.38;;;6.93;;
73428;SDS011;61643;49.564;17.412;2023-02-22T16:26:17;53.60;;;14.70;;
73428;SDS011;61643;49.564;17.412;2023-02-22T16:28:51;111.07;;;29.67;;
73428;SDS011;61643;49.564;17.412;2023-02-22T16:31:18;78.45;;;22.02;;
73428;SDS011;61643;49.564;17.412;2023-02-22T16:33:50;133.63;;;34.67;;
73428;SDS011;61643;49.564;17.412;2023-02-22T16:36:17;205.52;;;61.00;;
73428;SDS011;61643;49.564;17.412;2023-02-22T16:38:45;71.32;;;21.40;;
73428;SDS011;61643;49.564;17.412;2023-02-22T16:41:16;16.00;;;6.40;;
73428;SDS011;61643;49.564;17.412;2023-02-22T16:43:45;42.53;;;18.17;;
73428;SDS011;61643;49.564;17.412;2023-02-22T16:46:15;11.00;;;5.78;;
73428;SDS011;61643;49.564;17.412;2023-02-22T16:48:43;11.45;;;4.43;;
73428;SDS011;61643;49.564;17.412;2023-02-22T16:53:49;11.75;;;4.25;;
73428;SDS011;61643;49.564;17.412;2023-02-22T16:56:26;9.60;;;4.43;;
73428;SDS011;61643;49.564;17.412;2023-02-22T16:58:53;13.55;;;5.82;;
73428;SDS011;61643;49.564;17.412;2023-02-22T17:01:20;11.55;;;5.57;;
73428;SDS011;61643;49.564;17.412;2023-02-22T17:03:47;11.38;;;5.90;;
73428;SDS011;61643;49.564;17.412;2023-02-22T17:06:15;20.17;;;12.45;;
73428;SDS011;61643;49.564;17.412;2023-02-22T17:08:41;23.95;;;14.52;;
73428;SDS011;61643;49.564;17.412;2023-02-22T17:11:08;21.33;;;13.63;;